sensor_id;sensor_type;location;lat;lon;timestamp;pressure;altitude;pressure_sealevel;temperature;humidity
12775;BME280;6451;42.630;23.382;2023-03-14T00:00:33;94633.06;;;3.05;100.00
12775;BME280;6451;42.630;23.382;2023-03-14T00:03:00;94634.25;;;2.99;100.00
12775;BME280;6451;42.630;23.382;2023-03-14T00:05:28;94633.97;;;3.01;100.00
12775;BME280;6451;42.630;23.382;2023-03-14T00:07:55;94624.91;;;2.97;100.00
12775;BME280;6451;42.630;23.382;2023-03-14T00:10:21;94614.19;;;2.97;100.00
12775;BME280;6451;42.630;23.382;2023-03-14T00:12:48;94600.50;;;2.79;100.00
12775;BME280;6451;42.630;23.382;2023-03-14T00:15:16;94614.41;;;2.82;100.00
12775;BME280;6451;42.630;23.382;2023-03-14T00:17:44;94595.66;;;2.82;100.00
12775;BME280;6451;42.630;23.382;2023-03-14T00:20:12;94600.94;;;2.87;100.00
12775;BME280;6451;42.630;23.382;2023-03-14T00:22:39;94584.38;;;2.85;100.00
12775;BME280;6451;42.630;23.382;2023-03-14T00:25:08;94562.56;;;2.72;100.00
12775;BME280;6451;42.630;23.382;2023-03-14T00:27:35;94573.34;;;2.86;100.00
12775;BME280;6451;42.630;23.382;2023-03-14T00:30:04;94576.41;;;2.79;100.00
12775;BME280;6451;42.630;23.382;2023-03-14T00:32:34;94536.72;;;2.44;100.00
12775;BME280;6451;42.630;23.382;2023-03-14T00:35:01;94566.63;;;2.70;100.00
12775;BME280;6451;42.630;23.382;2023-03-14T00:37:29;94558.22;;;2.76;100.00
12775;BME280;6451;42.630;23.382;2023-03-14T00:39:55;94545.41;;;2.73;100.00
12775;BME280;6451;42.630;23.382;2023-03-14T00:42:24;94546.00;;;2.51;100.00
12775;BME280;6451;42.630;23.382;2023-03-14T00:44:51;94560.25;;;2.66;100.00
12775;BME280;6451;42.630;23.382;2023-03-14T00:47:18;94543.59;;;2.50;100.00
12775;BME280;6451;42.630;23.382;2023-03-14T00:49:47;94557.78;;;2.50;100.00
12775;BME280;6451;42.630;23.382;2023-03-14T00:52:15;94550.72;;;2.41;100.00
12775;BME280;6451;42.630;23.382;2023-03-14T00:54:43;94538.97;;;2.37;100.00
12775;BME280;6451;42.630;23.382;2023-03-14T00:57:11;94529.06;;;2.37;100.00
12775;BME280;6451;42.630;23.382;2023-03-14T00:59:41;94549.63;;;2.61;100.00
12775;BME280;6451;42.630;23.382;2023-03-14T01:02:08;94526.97;;;2.53;100.00
12775;BME280;6451;42.630;23.382;2023-03-14T01:04:35;94538.81;;;2.66;100.00
12775;BME280;6451;42.630;23.382;2023-03-14T01:07:04;94531.88;;;2.65;100.00
12775;BME280;6451;42.630;23.382;2023-03-14T01:09:31;94542.22;;;2.71;100.00
12775;BME280;6451;42.630;23.382;2023-03-14T01:11:58;94558.66;;;2.65;100.00
12775;BME280;6451;42.630;23.382;2023-03-14T01:14:25;94532.75;;;2.41;100.00
12775;BME280;6451;42.630;23.382;2023-03-14T01:16:51;94542.81;;;2.31;100.00
12775;BME280;6451;42.630;23.382;2023-03-14T01:19:18;94543.25;;;2.19;100.00
12775;BME280;6451;42.630;23.382;2023-03-14T01:21:45;94544.09;;;2.14;100.00
12775;BME280;6451;42.630;23.382;2023-03-14T01:24:13;94544.09;;;2.14;100.00
12775;BME280;6451;42.630;23.382;2023-03-14T01:26:41;94528.56;;;2.16;100.00
12775;BME280;6451;42.630;23.382;2023-03-14T01:29:09;94518.25;;;2.05;100.00
12775;BME280;6451;42.630;23.382;2023-03-14T01:31:36;94529.66;;;1.91;100.00
12775;BME280;6451;42.630;23.382;2023-03-14T01:34:03;94500.44;;;1.76;100.00
12775;BME280;6451;42.630;23.382;2023-03-14T01:36:30;94523.53;;;1.91;100.00
12775;BME280;6451;42.630;23.382;2023-03-14T01:38:57;94495.06;;;1.76;100.00
12775;BME280;6451;42.630;23.382;2023-03-14T01:41:25;94515.88;;;2.03;100.00
12775;BME280;6451;42.630;23.382;2023-03-14T01:43:53;94512.63;;;2.06;100.00
12775;BME280;6451;42.630;23.382;2023-03-14T01:46:29;94462.28;;;1.89;100.00
12775;BME280;6451;42.630;23.382;2023-03-14T01:51:48;94495.34;;;2.17;100.00
12775;BME280;6451;42.630;23.382;2023-03-14T01:54:19;94494.75;;;2.20;100.00
12775;BME280;6451;42.630;23.382;2023-03-14T01:56:52;94503.09;;;2.19;100.00
12775;BME280;6451;42.630;23.382;2023-03-14T01:59:20;94486.03;;;2.15;100.00
12775;BME280;6451;42.630;23.382;2023-03-14T02:01:49;94508.81;;;2.31;100.00
12775;BME280;6451;42.630;23.382;2023-03-14T02:04:19;94472.41;;;2.11;100.00
12775;BME280;6451;42.630;23.382;2023-03-14T02:06:50;94492.81;;;2.26;100.00
12775;BME280;6451;42.630;23.382;2023-03-14T02:09:20;94488.97;;;2.13;100.00
12775;BME280;6451;42.630;23.382;2023-03-14T02:11:49;94494.34;;;2.32;100.00
12775;BME280;6451;42.630;23.382;2023-03-14T02:14:25;94489.53;;;2.29;100.00
12775;BME280;6451;42.630;23.382;2023-03-14T02:16:54;94497.88;;;2.28;100.00
12775;BME280;6451;42.630;23.382;2023-03-14T02:19:28;94494.53;;;2.36;100.00
12775;BME280;6451;42.630;23.382;2023-03-14T02:22:04;94489.53;;;2.29;100.00
12775;BME280;6451;42.630;23.382;2023-03-14T02:24:36;94453.84;;;2.01;100.00
12775;BME280;6451;42.630;23.382;2023-03-14T02:27:10;94493.91;;;2.25;100.00
12775;BME280;6451;42.630;23.382;2023-03-14T02:29:41;94466.78;;;1.94;100.00
12775;BME280;6451;42.630;23.382;2023-03-14T02:32:10;94491.00;;;2.21;100.00
12775;BME280;6451;42.630;23.382;2023-03-14T02:34:38;94491.38;;;2.15;100.00
12775;BME280;6451;42.630;23.382;2023-03-14T02:37:07;94487.53;;;2.21;100.00
12775;BME280;6451;42.630;23.382;2023-03-14T02:39:37;94482.47;;;2.19;100.00
12775;BME280;6451;42.630;23.382;2023-03-14T02:42:05;94474.72;;;2.18;100.00
12775;BME280;6451;42.630;23.382;2023-03-14T02:44:33;94479.84;;;2.14;100.00
12775;BME280;6451;42.630;23.382;2023-03-14T02:47:01;94490.44;;;2.25;100.00
12775;BME280;6451;42.630;23.382;2023-03-14T02:49:29;94493.03;;;2.30;100.00
12775;BME280;6451;42.630;23.382;2023-03-14T02:51:58;94484.06;;;2.20;100.00
12775;BME280;6451;42.630;23.382;2023-03-14T02:54:26;94502.72;;;2.26;100.00
12775;BME280;6451;42.630;23.382;2023-03-14T02:56:53;94489.41;;;2.20;100.00
12775;BME280;6451;42.630;23.382;2023-03-14T02:59:20;94490.66;;;2.09;100.00
12775;BME280;6451;42.630;23.382;2023-03-14T03:01:54;94489.63;;;2.05;100.00
12775;BME280;6451;42.630;23.382;2023-03-14T03:04:21;94511.13;;;2.19;100.00
12775;BME280;6451;42.630;23.382;2023-03-14T03:06:47;94490.94;;;2.08;100.00
12775;BME280;6451;42.630;23.382;2023-03-14T03:09:14;94503.69;;;2.16;100.00
12775;BME280;6451;42.630;23.382;2023-03-14T03:11:41;94507.66;;;2.18;100.00
12775;BME280;6451;42.630;23.382;2023-03-14T03:14:08;94500.91;;;2.21;100.00
12775;BME280;6451;42.630;23.382;2023-03-14T03:16:35;94498.75;;;2.23;100.00
12775;BME280;6451;42.630;23.382;2023-03-14T03:19:03;94475.94;;;2.07;100.00
12775;BME280;6451;42.630;23.382;2023-03-14T03:21:30;94480.75;;;2.10;100.00
12775;BME280;6451;42.630;23.382;2023-03-14T03:23:56;94503.09;;;2.19;100.00
12775;BME280;6451;42.630;23.382;2023-03-14T03:26:23;94485.34;;;2.04;100.00
12775;BME280;6451;42.630;23.382;2023-03-14T03:28:50;94505.47;;;2.20;100.00
12775;BME280;6451;42.630;23.382;2023-03-14T03:31:18;94468.84;;;1.97;100.00
12775;BME280;6451;42.630;23.382;2023-03-14T03:33:44;94501.66;;;2.08;100.00
12775;BME280;6451;42.630;23.382;2023-03-14T03:36:13;94497.00;;;2.13;100.00
12775;BME280;6451;42.630;23.382;2023-03-14T03:38:39;94493.09;;;2.06;100.00
12775;BME280;6451;42.630;23.382;2023-03-14T03:41:07;94501.72;;;2.03;100.00
12775;BME280;6451;42.630;23.382;2023-03-14T03:43:34;94491.59;;;2.00;100.00
12775;BME280;6451;42.630;23.382;2023-03-14T03:46:03;94495.63;;;1.97;100.00
12775;BME280;6451;42.630;23.382;2023-03-14T03:48:29;94484.25;;;1.86;100.00
12775;BME280;6451;42.630;23.382;2023-03-14T03:50:56;94508.66;;;2.04;100.00
12775;BME280;6451;42.630;23.382;2023-03-14T03:53:25;94492.94;;;1.78;100.00
12775;BME280;6451;42.630;23.382;2023-03-14T03:55:52;94506.66;;;1.90;100.00
12775;BME280;6451;42.630;23.382;2023-03-14T03:58:19;94500.31;;;1.86;100.00
12775;BME280;6451;42.630;23.382;2023-03-14T04:00:46;94506.59;;;1.77;100.00
12775;BME280;6451;42.630;23.382;2023-03-14T04:03:12;94521.22;;;1.84;100.00
12775;BME280;6451;42.630;23.382;2023-03-14T04:05:40;94512.91;;;1.86;100.00
12775;BME280;6451;42.630;23.382;2023-03-14T04:08:07;94514.53;;;1.82;100.00
12775;BME280;6451;42.630;23.382;2023-03-14T04:10:35;94485.25;;;1.72;100.00
12775;BME280;6451;42.630;23.382;2023-03-14T04:13:03;94519.84;;;1.87;100.00
12775;BME280;6451;42.630;23.382;2023-03-14T04:15:29;94509.97;;;1.63;100.00
12775;BME280;6451;42.630;23.382;2023-03-14T04:17:57;94508.63;;;1.85;100.00
12775;BME280;6451;42.630;23.382;2023-03-14T04:20:24;94488.06;;;1.61;100.00
12775;BME280;6451;42.630;23.382;2023-03-14T04:22:51;94506.66;;;1.72;100.00
12775;BME280;6451;42.630;23.382;2023-03-14T04:25:17;94497.25;;;1.74;100.00
12775;BME280;6451;42.630;23.382;2023-03-14T04:27:47;94446.06;;;1.38;100.00
12775;BME280;6451;42.630;23.382;2023-03-14T04:30:15;94477.06;;;1.63;100.00
12775;BME280;6451;42.630;23.382;2023-03-14T04:32:42;94472.97;;;1.71;100.00
12775;BME280;6451;42.630;23.382;2023-03-14T04:35:09;94477.00;;;1.68;100.00
12775;BME280;6451;42.630;23.382;2023-03-14T04:37:35;94473.53;;;1.67;100.00
12775;BME280;6451;42.630;23.382;2023-03-14T04:40:03;94467.09;;;1.68;100.00
12775;BME280;6451;42.630;23.382;2023-03-14T04:42:31;94446.41;;;1.55;100.00
12775;BME280;6451;42.630;23.382;2023-03-14T04:45:00;94399.13;;;1.32;100.00
12775;BME280;6451;42.630;23.382;2023-03-14T04:47:27;94450.84;;;1.65;100.00
12775;BME280;6451;42.630;23.382;2023-03-14T04:49:54;94469.25;;;1.66;100.00
12775;BME280;6451;42.630;23.382;2023-03-14T04:52:22;94468.72;;;1.70;100.00
12775;BME280;6451;42.630;23.382;2023-03-14T04:54:49;94450.78;;;1.70;100.00
12775;BME280;6451;42.630;23.382;2023-03-14T04:57:16;94464.34;;;1.74;100.00
12775;BME280;6451;42.630;23.382;2023-03-14T04:59:43;94441.91;;;2.45;100.00
12775;BME280;6451;42.630;23.382;2023-03-14T05:02:11;94451.88;;;2.58;100.00
12775;BME280;6451;42.630;23.382;2023-03-14T05:04:39;94448.63;;;3.08;100.00
12775;BME280;6451;42.630;23.382;2023-03-14T05:07:06;94452.28;;;2.84;100.00
12775;BME280;6451;42.630;23.382;2023-03-14T05:09:34;94433.72;;;2.55;100.00
12775;BME280;6451;42.630;23.382;2023-03-14T05:12:00;94451.75;;;2.49;100.00
12775;BME280;6451;42.630;23.382;2023-03-14T05:14:27;94458.81;;;2.27;100.00
12775;BME280;6451;42.630;23.382;2023-03-14T05:16:54;94455.97;;;2.37;100.00
12775;BME280;6451;42.630;23.382;2023-03-14T05:19:22;94455.13;;;2.22;100.00
12775;BME280;6451;42.630;23.382;2023-03-14T05:21:49;94450.34;;;2.19;100.00
12775;BME280;6451;42.630;23.382;2023-03-14T05:24:16;94453.44;;;2.27;100.00
12775;BME280;6451;42.630;23.382;2023-03-14T05:26:43;94442.44;;;2.28;100.00
12775;BME280;6451;42.630;23.382;2023-03-14T05:29:10;94456.63;;;2.29;100.00
12775;BME280;6451;42.630;23.382;2023-03-14T05:31:37;94435.44;;;2.13;100.00
12775;BME280;6451;42.630;23.382;2023-03-14T05:34:04;94441.78;;;2.36;100.00
12775;BME280;6451;42.630;23.382;2023-03-14T05:36:32;94443.22;;;2.47;100.00
12775;BME280;6451;42.630;23.382;2023-03-14T05:38:59;94448.63;;;2.61;100.00
12775;BME280;6451;42.630;23.382;2023-03-14T05:41:26;94434.97;;;2.44;100.00
12775;BME280;6451;42.630;23.382;2023-03-14T05:43:52;94443.84;;;2.58;100.00
12775;BME280;6451;42.630;23.382;2023-03-14T05:46:19;94441.59;;;2.65;100.00
12775;BME280;6451;42.630;23.382;2023-03-14T05:48:46;94448.66;;;2.75;100.00
12775;BME280;6451;42.630;23.382;2023-03-14T05:51:13;94446.50;;;2.91;100.00
12775;BME280;6451;42.630;23.382;2023-03-14T05:53:41;94442.13;;;2.81;100.00
12775;BME280;6451;42.630;23.382;2023-03-14T05:56:08;94446.41;;;2.96;100.00
12775;BME280;6451;42.630;23.382;2023-03-14T05:58:35;94442.38;;;3.12;100.00
12775;BME280;6451;42.630;23.382;2023-03-14T06:01:04;94439.41;;;3.55;100.00
12775;BME280;6451;42.630;23.382;2023-03-14T06:03:32;94441.88;;;3.79;100.00
12775;BME280;6451;42.630;23.382;2023-03-14T06:06:00;94445.16;;;3.76;100.00
12775;BME280;6451;42.630;23.382;2023-03-14T06:08:27;94438.69;;;3.77;100.00
12775;BME280;6451;42.630;23.382;2023-03-14T06:10:56;94440.06;;;3.74;100.00
12775;BME280;6451;42.630;23.382;2023-03-14T06:13:24;94446.75;;;3.63;100.00
12775;BME280;6451;42.630;23.382;2023-03-14T06:15:51;94436.13;;;3.72;100.00
12775;BME280;6451;42.630;23.382;2023-03-14T06:18:17;94443.13;;;3.95;100.00
12775;BME280;6451;42.630;23.382;2023-03-14T06:20:44;94403.69;;;3.82;100.00
12775;BME280;6451;42.630;23.382;2023-03-14T06:23:12;94433.72;;;3.84;100.00
12775;BME280;6451;42.630;23.382;2023-03-14T06:25:39;94434.66;;;4.02;100.00
12775;BME280;6451;42.630;23.382;2023-03-14T06:28:07;94433.84;;;4.15;100.00
12775;BME280;6451;42.630;23.382;2023-03-14T06:30:34;94422.50;;;4.04;100.00
12775;BME280;6451;42.630;23.382;2023-03-14T06:33:01;94443.63;;;4.33;100.00
12775;BME280;6451;42.630;23.382;2023-03-14T06:35:28;94364.19;;;3.96;100.00
12775;BME280;6451;42.630;23.382;2023-03-14T06:37:55;94436.63;;;4.46;100.00
12775;BME280;6451;42.630;23.382;2023-03-14T06:40:22;94415.28;;;4.50;100.00
12775;BME280;6451;42.630;23.382;2023-03-14T06:42:49;94433.97;;;4.77;100.00
12775;BME280;6451;42.630;23.382;2023-03-14T06:45:17;94442.31;;;4.98;100.00
12775;BME280;6451;42.630;23.382;2023-03-14T06:47:47;94431.28;;;4.77;100.00
12775;BME280;6451;42.630;23.382;2023-03-14T06:50:17;94414.72;;;4.84;100.00
12775;BME280;6451;42.630;23.382;2023-03-14T06:52:44;94422.34;;;4.90;100.00
12775;BME280;6451;42.630;23.382;2023-03-14T06:55:13;94422.84;;;5.23;100.00
12775;BME280;6451;42.630;23.382;2023-03-14T06:57:41;94421.91;;;5.37;100.00
12775;BME280;6451;42.630;23.382;2023-03-14T07:00:11;94400.00;;;5.21;100.00
12775;BME280;6451;42.630;23.382;2023-03-14T07:02:40;94398.69;;;5.41;100.00
12775;BME280;6451;42.630;23.382;2023-03-14T07:05:07;94416.94;;;5.52;97.08
12775;BME280;6451;42.630;23.382;2023-03-14T07:07:35;94411.13;;;5.68;95.66
12775;BME280;6451;42.630;23.382;2023-03-14T07:10:03;94410.25;;;5.50;93.63
12775;BME280;6451;42.630;23.382;2023-03-14T07:12:30;94401.00;;;5.25;94.00
12775;BME280;6451;42.630;23.382;2023-03-14T07:14:57;94400.78;;;5.13;96.38
12775;BME280;6451;42.630;23.382;2023-03-14T07:17:24;94395.09;;;5.14;96.89
12775;BME280;6451;42.630;23.382;2023-03-14T07:19:52;94397.25;;;5.43;95.57
12775;BME280;6451;42.630;23.382;2023-03-14T07:22:20;94397.91;;;5.49;92.91
12775;BME280;6451;42.630;23.382;2023-03-14T07:24:47;94395.44;;;5.70;92.25
12775;BME280;6451;42.630;23.382;2023-03-14T07:27:14;94386.66;;;5.38;91.11
12775;BME280;6451;42.630;23.382;2023-03-14T07:29:41;94398.72;;;5.58;91.80
12775;BME280;6451;42.630;23.382;2023-03-14T07:32:08;94395.25;;;5.66;92.24
12775;BME280;6451;42.630;23.382;2023-03-14T07:34:35;94384.59;;;5.44;91.17
12775;BME280;6451;42.630;23.382;2023-03-14T07:37:05;94371.00;;;5.49;91.33
12775;BME280;6451;42.630;23.382;2023-03-14T07:39:31;94386.22;;;5.62;89.96
12775;BME280;6451;42.630;23.382;2023-03-14T07:41:58;94352.94;;;5.49;89.19
12775;BME280;6451;42.630;23.382;2023-03-14T07:44:25;94379.44;;;5.82;89.43
12775;BME280;6451;42.630;23.382;2023-03-14T07:46:54;94372.38;;;5.95;89.81
12775;BME280;6451;42.630;23.382;2023-03-14T07:49:20;94361.94;;;6.36;91.12
12775;BME280;6451;42.630;23.382;2023-03-14T07:51:48;94365.09;;;6.38;89.40
12775;BME280;6451;42.630;23.382;2023-03-14T07:54:18;94368.56;;;6.13;87.34
12775;BME280;6451;42.630;23.382;2023-03-14T07:56:46;94355.25;;;6.43;87.32
12775;BME280;6451;42.630;23.382;2023-03-14T07:59:13;94366.63;;;6.65;84.27
12775;BME280;6451;42.630;23.382;2023-03-14T08:01:39;94361.81;;;6.80;84.35
12775;BME280;6451;42.630;23.382;2023-03-14T08:04:06;94361.53;;;6.73;83.39
12775;BME280;6451;42.630;23.382;2023-03-14T08:06:34;94363.81;;;6.45;84.21
12775;BME280;6451;42.630;23.382;2023-03-14T08:09:02;94352.38;;;6.56;84.47
12775;BME280;6451;42.630;23.382;2023-03-14T08:11:30;94367.03;;;6.93;83.54
12775;BME280;6451;42.630;23.382;2023-03-14T08:13:57;94350.59;;;6.78;81.96
12775;BME280;6451;42.630;23.382;2023-03-14T08:16:24;94352.00;;;6.84;81.14
12775;BME280;6451;42.630;23.382;2023-03-14T08:18:51;94350.72;;;6.81;81.29
12775;BME280;6451;42.630;23.382;2023-03-14T08:21:19;94368.16;;;6.92;82.15
12775;BME280;6451;42.630;23.382;2023-03-14T08:23:46;94357.44;;;7.13;82.58
12775;BME280;6451;42.630;23.382;2023-03-14T08:26:12;94356.78;;;7.16;80.64
12775;BME280;6451;42.630;23.382;2023-03-14T08:28:41;94363.69;;;7.35;80.50
12775;BME280;6451;42.630;23.382;2023-03-14T08:31:08;94345.28;;;7.37;79.80
12775;BME280;6451;42.630;23.382;2023-03-14T08:33:34;94337.03;;;7.33;79.05
12775;BME280;6451;42.630;23.382;2023-03-14T08:36:01;94349.88;;;7.36;79.89
12775;BME280;6451;42.630;23.382;2023-03-14T08:38:29;94344.00;;;7.34;79.48
12775;BME280;6451;42.630;23.382;2023-03-14T08:40:56;94339.06;;;7.66;77.84
12775;BME280;6451;42.630;23.382;2023-03-14T08:43:24;94333.84;;;7.90;76.60
12775;BME280;6451;42.630;23.382;2023-03-14T08:45:52;94337.53;;;8.06;76.27
12775;BME280;6451;42.630;23.382;2023-03-14T08:48:19;94323.59;;;8.17;74.93
12775;BME280;6451;42.630;23.382;2023-03-14T08:50:46;94314.59;;;7.92;74.87
12775;BME280;6451;42.630;23.382;2023-03-14T08:53:15;94324.53;;;8.00;74.55
12775;BME280;6451;42.630;23.382;2023-03-14T08:55:43;94315.84;;;7.94;73.08
12775;BME280;6451;42.630;23.382;2023-03-14T08:58:10;94313.00;;;7.91;72.60
12775;BME280;6451;42.630;23.382;2023-03-14T09:00:37;94308.44;;;8.24;71.73
12775;BME280;6451;42.630;23.382;2023-03-14T09:03:05;94307.16;;;8.43;71.14
12775;BME280;6451;42.630;23.382;2023-03-14T09:05:33;94313.31;;;8.64;68.86
12775;BME280;6451;42.630;23.382;2023-03-14T09:08:00;94271.88;;;8.60;67.56
12775;BME280;6451;42.630;23.382;2023-03-14T09:10:27;94301.00;;;9.12;66.44
12775;BME280;6451;42.630;23.382;2023-03-14T09:12:55;94272.03;;;9.12;67.13
12775;BME280;6451;42.630;23.382;2023-03-14T09:15:23;94269.88;;;9.06;66.64
12775;BME280;6451;42.630;23.382;2023-03-14T09:17:50;94273.38;;;9.31;65.99
12775;BME280;6451;42.630;23.382;2023-03-14T09:20:19;94277.53;;;9.53;64.17
12775;BME280;6451;42.630;23.382;2023-03-14T09:22:45;94267.84;;;9.52;63.08
12775;BME280;6451;42.630;23.382;2023-03-14T09:25:12;94249.84;;;9.71;62.78
12775;BME280;6451;42.630;23.382;2023-03-14T09:27:40;94248.38;;;9.74;61.97
12775;BME280;6451;42.630;23.382;2023-03-14T09:30:08;94249.28;;;9.66;61.30
12775;BME280;6451;42.630;23.382;2023-03-14T09:32:36;94242.97;;;10.02;60.17
12775;BME280;6451;42.630;23.382;2023-03-14T09:35:03;94232.41;;;10.25;59.22
12775;BME280;6451;42.630;23.382;2023-03-14T09:37:32;94225.94;;;10.29;56.94
12775;BME280;6451;42.630;23.382;2023-03-14T09:39:59;94228.00;;;9.92;56.89
12775;BME280;6451;42.630;23.382;2023-03-14T09:42:28;94232.22;;;9.65;57.31
12775;BME280;6451;42.630;23.382;2023-03-14T09:44:57;94221.72;;;9.76;57.56
12775;BME280;6451;42.630;23.382;2023-03-14T09:47:26;94209.22;;;9.99;58.14
12775;BME280;6451;42.630;23.382;2023-03-14T09:49:54;94215.13;;;10.45;57.21
12775;BME280;6451;42.630;23.382;2023-03-14T09:52:23;94202.00;;;10.47;56.11
12775;BME280;6451;42.630;23.382;2023-03-14T09:54:56;94184.56;;;10.48;57.29
12775;BME280;6451;42.630;23.382;2023-03-14T09:57:25;94195.69;;;10.43;58.37
12775;BME280;6451;42.630;23.382;2023-03-14T09:59:55;94180.28;;;10.47;58.80
12775;BME280;6451;42.630;23.382;2023-03-14T10:02:25;94163.06;;;10.55;57.60
12775;BME280;6451;42.630;23.382;2023-03-14T10:04:53;94179.63;;;10.66;57.31
12775;BME280;6451;42.630;23.382;2023-03-14T10:07:27;94189.84;;;10.73;57.50
12775;BME280;6451;42.630;23.382;2023-03-14T10:09:56;94177.56;;;10.95;57.32
12775;BME280;6451;42.630;23.382;2023-03-14T10:12:30;94171.94;;;11.03;57.93
12775;BME280;6451;42.630;23.382;2023-03-14T10:15:03;94146.41;;;10.89;59.66
12775;BME280;6451;42.630;23.382;2023-03-14T10:17:38;94156.13;;;11.05;60.42
12775;BME280;6451;42.630;23.382;2023-03-14T10:20:06;94155.25;;;11.36;59.61
12775;BME280;6451;42.630;23.382;2023-03-14T10:22:36;94132.56;;;11.29;59.05
12775;BME280;6451;42.630;23.382;2023-03-14T10:25:05;94148.03;;;11.63;57.99
12775;BME280;6451;42.630;23.382;2023-03-14T10:27:35;94112.09;;;11.51;57.30
12775;BME280;6451;42.630;23.382;2023-03-14T10:30:06;94128.78;;;11.72;56.70
12775;BME280;6451;42.630;23.382;2023-03-14T10:32:35;94125.28;;;11.72;57.74
12775;BME280;6451;42.630;23.382;2023-03-14T10:35:11;94119.75;;;11.84;58.26
12775;BME280;6451;42.630;23.382;2023-03-14T10:37:52;94107.84;;;11.92;57.79
12775;BME280;6451;42.630;23.382;2023-03-14T10:40:26;94111.88;;;12.21;57.81
12775;BME280;6451;42.630;23.382;2023-03-14T10:42:54;94096.59;;;12.36;56.43
12775;BME280;6451;42.630;23.382;2023-03-14T10:45:36;94098.94;;;12.14;55.96
12775;BME280;6451;42.630;23.382;2023-03-14T10:48:19;94076.56;;;12.24;55.36
12775;BME280;6451;42.630;23.382;2023-03-14T10:50:53;94083.66;;;12.52;55.42
12775;BME280;6451;42.630;23.382;2023-03-14T10:53:21;94064.59;;;12.78;54.17
12775;BME280;6451;42.630;23.382;2023-03-14T10:55:49;94053.56;;;12.68;53.02
12775;BME280;6451;42.630;23.382;2023-03-14T10:58:21;94062.19;;;13.00;52.28
12775;BME280;6451;42.630;23.382;2023-03-14T11:00:53;94047.44;;;12.74;52.44
12775;BME280;6451;42.630;23.382;2023-03-14T11:03:23;94037.28;;;12.71;52.14
12775;BME280;6451;42.630;23.382;2023-03-14T11:05:53;94021.44;;;12.50;52.78
12775;BME280;6451;42.630;23.382;2023-03-14T11:08:25;94036.84;;;12.43;53.38
12775;BME280;6451;42.630;23.382;2023-03-14T11:11:02;94027.00;;;12.88;52.36
12775;BME280;6451;42.630;23.382;2023-03-14T11:13:38;94007.22;;;12.64;51.38
12775;BME280;6451;42.630;23.382;2023-03-14T11:16:09;94018.75;;;12.80;51.12
12775;BME280;6451;42.630;23.382;2023-03-14T11:18:54;94001.03;;;12.94;51.02
12775;BME280;6451;42.630;23.382;2023-03-14T11:21:28;94001.31;;;13.49;50.58
12775;BME280;6451;42.630;23.382;2023-03-14T11:24:09;93997.56;;;13.60;48.97
12775;BME280;6451;42.630;23.382;2023-03-14T11:26:42;93846.03;;;12.48;48.69
12775;BME280;6451;42.630;23.382;2023-03-14T11:29:19;93950.97;;;13.35;48.37
12775;BME280;6451;42.630;23.382;2023-03-14T11:31:47;93965.25;;;13.59;48.49
12775;BME280;6451;42.630;23.382;2023-03-14T11:34:16;93961.81;;;13.69;47.94
12775;BME280;6451;42.630;23.382;2023-03-14T11:36:48;93953.72;;;13.76;47.82
12775;BME280;6451;42.630;23.382;2023-03-14T11:39:19;93903.22;;;13.15;47.48
12775;BME280;6451;42.630;23.382;2023-03-14T11:41:51;93933.75;;;13.28;47.16
12775;BME280;6451;42.630;23.382;2023-03-14T11:44:20;93938.63;;;13.45;47.03
12775;BME280;6451;42.630;23.382;2023-03-14T11:46:52;93906.16;;;13.33;47.15
12775;BME280;6451;42.630;23.382;2023-03-14T11:49:31;93942.03;;;13.76;46.03
12775;BME280;6451;42.630;23.382;2023-03-14T11:52:04;93930.88;;;13.91;45.36
12775;BME280;6451;42.630;23.382;2023-03-14T11:54:37;93925.06;;;13.97;45.52
12775;BME280;6451;42.630;23.382;2023-03-14T11:57:16;93917.00;;;14.14;45.07
12775;BME280;6451;42.630;23.382;2023-03-14T11:59:49;93917.00;;;14.14;44.92
12775;BME280;6451;42.630;23.382;2023-03-14T12:02:22;93908.88;;;14.25;44.44
12775;BME280;6451;42.630;23.382;2023-03-14T12:05:20;93891.56;;;14.00;44.32
12775;BME280;6451;42.630;23.382;2023-03-14T12:08:14;93875.78;;;14.27;44.33
12775;BME280;6451;42.630;23.382;2023-03-14T12:10:49;93893.78;;;14.38;44.21
12775;BME280;6451;42.630;23.382;2023-03-14T12:13:19;93883.19;;;14.30;44.47
12775;BME280;6451;42.630;23.382;2023-03-14T12:15:49;93877.91;;;14.55;44.09
12775;BME280;6451;42.630;23.382;2023-03-14T12:18:20;93873.25;;;14.59;43.67
12775;BME280;6451;42.630;23.382;2023-03-14T12:20:53;93848.38;;;14.82;43.21
12775;BME280;6451;42.630;23.382;2023-03-14T12:23:21;93861.72;;;15.01;42.99
12775;BME280;6451;42.630;23.382;2023-03-14T12:26:06;93864.75;;;14.74;42.80
12775;BME280;6451;42.630;23.382;2023-03-14T12:28:35;93845.25;;;14.72;42.23
12775;BME280;6451;42.630;23.382;2023-03-14T12:31:36;93855.78;;;14.78;42.25
12775;BME280;6451;42.630;23.382;2023-03-14T12:34:10;93849.94;;;14.86;41.70
12775;BME280;6451;42.630;23.382;2023-03-14T12:37:05;93810.47;;;14.59;41.67
12775;BME280;6451;42.630;23.382;2023-03-14T12:39:43;93841.81;;;15.04;40.92
12775;BME280;6451;42.630;23.382;2023-03-14T12:42:13;93832.84;;;15.18;40.90
12775;BME280;6451;42.630;23.382;2023-03-14T12:44:45;93831.31;;;15.13;41.17
12775;BME280;6451;42.630;23.382;2023-03-14T12:47:50;93781.31;;;15.02;40.22
12775;BME280;6451;42.630;23.382;2023-03-14T12:50:24;93826.66;;;15.42;40.23
12775;BME280;6451;42.630;23.382;2023-03-14T12:53:06;93829.28;;;14.92;40.17
12775;BME280;6451;42.630;23.382;2023-03-14T12:55:45;93818.41;;;15.03;40.28
12775;BME280;6451;42.630;23.382;2023-03-14T12:58:21;93816.06;;;15.09;40.03
12775;BME280;6451;42.630;23.382;2023-03-14T13:00:56;93807.88;;;15.23;39.27
12775;BME280;6451;42.630;23.382;2023-03-14T13:03:25;93782.13;;;15.27;39.20
12775;BME280;6451;42.630;23.382;2023-03-14T13:05:56;93786.81;;;15.27;39.01
12775;BME280;6451;42.630;23.382;2023-03-14T13:08:38;93795.81;;;15.52;39.19
12775;BME280;6451;42.630;23.382;2023-03-14T13:11:09;93785.66;;;15.53;38.64
12775;BME280;6451;42.630;23.382;2023-03-14T13:13:41;93786.44;;;15.53;38.67
12775;BME280;6451;42.630;23.382;2023-03-14T13:16:14;93781.38;;;15.77;39.50